Time;durP1;ratioP1;P1;durP2;ratioP2;P2;SDS_P1;SDS_P2;PMS_P1;PMS_P2;Temp;Humidity;BMP_temperature;BMP_pressure;BME280_temperature;BME280_humidity;BME280_pressure;Samples;Min_cycle;Max_cycle;Signal;HPM_P1;HPM_P2
2023/05/30 00:01:46;;;;;;;16.65;11.15;;;15.80;99.90;;;;;;5117584;28;20035;-67
2023/05/30 00:04:12;;;;;;;15.75;10.50;;;15.80;99.90;;;;;;5117484;28;20024;-67
2023/05/30 00:06:38;;;;;;;19.48;9.93;;;15.90;99.90;;;;;;5117879;28;20103;-67
2023/05/30 00:09:04;;;;;;;17.00;10.30;;;15.90;99.90;;;;;;5117473;28;20112;-67
2023/05/30 00:11:30;;;;;;;15.45;9.73;;;16.00;99.90;;;;;;5117644;28;20024;-67
2023/05/30 00:13:57;;;;;;;11.50;9.13;;;16.00;99.90;;;;;;5117483;28;20023;-67
2023/05/30 00:16:23;;;;;;;19.98;10.45;;;16.00;99.90;;;;;;5117576;28;20072;-67
2023/05/30 00:18:52;;;;;;;16.75;10.07;;;15.90;99.90;;;;;;5099242;28;20083;-67
2023/05/30 00:21:19;;;;;;;17.48;10.23;;;15.80;99.90;;;;;;5117546;28;20049;-67
2023/05/30 00:23:49;;;;;;;14.32;10.05;;;15.70;99.90;;;;;;5117231;28;20469;-67
2023/05/30 00:26:18;;;;;;;15.32;10.30;;;15.80;99.90;;;;;;5117263;28;20533;-67
2023/05/30 00:28:51;;;;;;;17.65;9.45;;;15.70;99.90;;;;;;5099067;28;20048;-67
2023/05/30 00:31:18;;;;;;;15.88;9.75;;;15.70;99.90;;;;;;5117173;28;20028;-67
2023/05/30 00:33:44;;;;;;;31.23;10.88;;;15.70;99.90;;;;;;5117310;28;20503;-67
2023/05/30 00:36:10;;;;;;;15.02;10.68;;;15.70;99.90;;;;;;5117197;28;20028;-67
2023/05/30 00:38:36;;;;;;;15.27;10.10;;;15.70;99.90;;;;;;5098777;28;20042;-67
2023/05/30 00:41:03;;;;;;;13.95;9.85;;;15.70;99.90;;;;;;5116878;28;20392;-67
2023/05/30 00:43:28;;;;;;;14.98;9.45;;;15.60;99.90;;;;;;5117164;28;20024;-67
2023/05/30 00:45:55;;;;;;;13.20;9.50;;;15.60;99.90;;;;;;5116768;28;20026;-67
2023/05/30 00:48:22;;;;;;;17.33;10.23;;;15.60;99.90;;;;;;5098580;28;20118;-67
2023/05/30 00:50:49;;;;;;;17.75;10.02;;;15.50;99.90;;;;;;5116376;28;20542;-67
2023/05/30 00:53:16;;;;;;;17.65;10.25;;;15.40;99.90;;;;;;5116799;28;20106;-67
2023/05/30 00:55:42;;;;;;;21.25;10.30;;;15.50;99.90;;;;;;5116844;28;20028;-67
2023/05/30 00:58:08;;;;;;;15.60;10.57;;;15.40;99.90;;;;;;5116861;28;20087;-67
2023/05/30 01:00:38;;;;;;;17.27;10.82;;;15.30;99.90;;;;;;5116388;28;20031;-67
2023/05/30 01:03:05;;;;;;;19.58;9.95;;;15.40;99.90;;;;;;5116649;28;20027;-67
2023/05/30 01:05:31;;;;;;;19.38;10.27;;;15.30;99.90;;;;;;5116710;28;20080;-67
2023/05/30 01:07:57;;;;;;;19.50;10.15;;;15.30;99.90;;;;;;5116659;28;20023;-67
2023/05/30 01:10:23;;;;;;;15.60;10.85;;;15.10;99.90;;;;;;5116336;28;20484;-67
2023/05/30 01:12:51;;;;;;;13.50;10.20;;;15.00;99.90;;;;;;5116635;28;20024;-67
2023/05/30 01:15:23;;;;;;;23.77;11.07;;;15.00;99.90;;;;;;5098065;28;20028;-67
2023/05/30 01:17:50;;;;;;;21.23;11.00;;;15.00;99.90;;;;;;5116370;28;20023;-67
2023/05/30 01:20:22;;;;;;;16.27;10.75;;;15.00;99.90;;;;;;5116308;28;20049;-67
2023/05/30 01:23:08;;;;;;;16.95;10.70;;;15.00;99.90;;;;;;5116219;28;20460;-67
2023/05/30 01:26:19;;;;;;;12.35;10.43;;;14.90;99.90;;;;;;5097796;28;20043;-67
2023/05/30 01:28:48;;;;;;;19.92;10.32;;;14.90;99.90;;;;;;5116112;28;20058;-67
2023/05/30 01:31:15;;;;;;;21.35;11.60;;;14.80;99.90;;;;;;5116156;28;20024;-67
2023/05/30 01:33:44;;;;;;;41.45;17.80;;;14.70;99.90;;;;;;5094044;28;20398;-67
2023/05/30 01:36:10;;;;;;;31.60;14.80;;;14.60;99.90;;;;;;5094435;28;20122;-67
2023/05/30 01:38:37;;;;;;;36.58;14.23;;;14.50;99.90;;;;;;5095614;28;20028;-67
2023/05/30 01:41:11;;;;;;;20.83;12.30;;;14.50;99.90;;;;;;5094121;28;20058;-67
2023/05/30 01:43:53;;;;;;;20.40;11.93;;;14.40;99.90;;;;;;5095885;28;20063;-67
2023/05/30 01:46:28;;;;;;;15.70;11.18;;;14.40;99.90;;;;;;5094160;28;20031;-67
2023/05/30 01:48:54;;;;;;;17.70;12.25;;;14.40;99.90;;;;;;5095446;28;20027;-67
2023/05/30 01:51:48;;;;;;;23.83;11.65;;;14.40;99.90;;;;;;5094077;28;20383;-67
2023/05/30 01:54:17;;;;;;;16.20;11.43;;;14.40;99.90;;;;;;5095331;28;20032;-67
2023/05/30 01:56:47;;;;;;;20.57;12.33;;;14.40;99.90;;;;;;5093904;28;20115;-67
2023/05/30 01:59:15;;;;;;;20.20;11.87;;;14.40;99.90;;;;;;5093933;28;20496;-67
2023/05/30 02:01:42;;;;;;;33.17;15.25;;;14.40;99.90;;;;;;5094383;28;20034;-67
2023/05/30 02:04:09;;;;;;;28.20;14.23;;;14.30;99.90;;;;;;5094977;28;20024;-67
2023/05/30 02:06:36;;;;;;;29.95;14.35;;;14.10;99.90;;;;;;5095154;28;20031;-67
2023/05/30 02:09:04;;;;;;;23.52;12.90;;;14.00;99.90;;;;;;5093701;28;20562;-67
2023/05/30 02:11:30;;;;;;;27.27;12.15;;;14.00;99.90;;;;;;5093722;28;20099;-67
2023/05/30 02:13:59;;;;;;;30.33;12.02;;;14.00;99.90;;;;;;5095012;28;20469;-67
2023/05/30 02:16:25;;;;;;;22.38;12.75;;;14.10;99.90;;;;;;5093704;28;20028;-67
2023/05/30 02:18:52;;;;;;;16.58;12.05;;;14.00;99.90;;;;;;5093619;28;20548;-67
2023/05/30 02:21:19;;;;;;;26.63;13.07;;;14.00;99.90;;;;;;5093501;28;20024;-67
2023/05/30 02:23:45;;;;;;;23.42;13.55;;;13.90;99.90;;;;;;5094707;28;20024;-67
2023/05/30 02:26:11;;;;;;;23.00;12.82;;;14.00;99.90;;;;;;5093610;28;20204;-67
2023/05/30 02:28:37;;;;;;;24.77;12.35;;;14.00;99.90;;;;;;5095015;28;20078;-67
2023/05/30 02:31:03;;;;;;;22.80;12.88;;;13.90;99.90;;;;;;5095162;28;20032;-67
2023/05/30 02:33:30;;;;;;;26.95;13.57;;;13.90;99.90;;;;;;5103952;28;20063;-67
2023/05/30 02:35:56;;;;;;;20.83;13.90;;;13.90;99.90;;;;;;5096823;28;20374;-67
2023/05/30 02:38:23;;;;;;;25.65;14.18;;;13.90;99.90;;;;;;5114850;28;20035;-67
2023/05/30 02:40:49;;;;;;;32.33;14.68;;;13.90;99.90;;;;;;5096636;28;20043;-67
2023/05/30 02:43:15;;;;;;;23.90;13.93;;;13.90;99.90;;;;;;5096711;28;20077;-67
2023/05/30 02:45:42;;;;;;;21.13;13.90;;;13.80;99.90;;;;;;5096582;28;20059;-67
2023/05/30 02:48:08;;;;;;;17.95;12.00;;;13.90;99.90;;;;;;5096763;28;20020;-67
2023/05/30 02:50:35;;;;;;;19.55;12.35;;;13.90;99.90;;;;;;5096624;28;20030;-67
2023/05/30 02:53:05;;;;;;;26.63;12.43;;;13.90;99.90;;;;;;5096376;28;20110;-67
2023/05/30 02:55:32;;;;;;;34.97;14.90;;;13.90;99.90;;;;;;5114984;28;20047;-67
2023/05/30 02:58:26;;;;;;;25.33;13.20;;;13.90;99.90;;;;;;5104427;28;20039;-67
2023/05/30 03:01:07;;;;;;;;;;;13.90;99.90;;;;;;5096840;28;20043;-67
2023/05/30 03:03:34;;;;;;;25.25;13.32;;;13.90;99.90;;;;;;5096471;28;19908;-67
2023/05/30 03:06:12;;;;;;;24.90;13.50;;;13.90;99.90;;;;;;5096433;28;20043;-67
2023/05/30 03:09:00;;;;;;;21.15;12.93;;;13.90;99.90;;;;;;5096345;28;20048;-67
2023/05/30 03:11:26;;;;;;;21.20;13.07;;;13.90;99.90;;;;;;5096485;28;20024;-67
2023/05/30 03:13:52;;;;;;;21.77;13.18;;;13.90;99.90;;;;;;5098708;28;20032;-67
2023/05/30 03:16:19;;;;;;;21.90;14.32;;;14.00;99.90;;;;;;5118811;28;20035;-67
2023/05/30 03:18:45;;;;;;;24.00;13.57;;;14.10;99.90;;;;;;5100254;28;20118;-67
2023/05/30 03:21:12;;;;;;;20.67;13.68;;;14.00;99.90;;;;;;5100372;28;20420;-67
2023/05/30 03:23:38;;;;;;;21.35;13.93;;;14.10;99.90;;;;;;5100615;28;20085;-67
2023/05/30 03:26:04;;;;;;;20.55;13.40;;;14.20;99.90;;;;;;5100167;28;20031;-67
2023/05/30 03:28:30;;;;;;;18.40;12.18;;;14.10;99.90;;;;;;5118362;28;20023;-67
2023/05/30 03:31:18;;;;;;;14.18;11.25;;;14.20;99.90;;;;;;5100200;28;20408;-67
2023/05/30 03:33:45;;;;;;;17.25;12.25;;;14.30;99.90;;;;;;5099971;28;20040;-67
2023/05/30 03:36:11;;;;;;;15.77;11.60;;;14.30;99.90;;;;;;5100016;28;20046;-67
2023/05/30 03:38:38;;;;;;;17.13;12.80;;;14.30;99.90;;;;;;5099950;28;20563;-67
2023/05/30 03:41:05;;;;;;;22.52;13.50;;;14.30;99.90;;;;;;5099901;28;20035;-67
2023/05/30 03:43:31;;;;;;;17.90;12.07;;;14.20;99.90;;;;;;5099892;28;20034;-67
2023/05/30 03:45:57;;;;;;;25.88;14.95;;;14.30;99.90;;;;;;5118190;28;20024;-67
2023/05/30 03:48:23;;;;;;;19.23;12.05;;;14.40;99.90;;;;;;5118106;28;20035;-67
2023/05/30 03:50:49;;;;;;;16.67;12.07;;;14.40;99.90;;;;;;5118013;28;20083;-67
2023/05/30 03:53:16;;;;;;;23.63;12.55;;;14.40;99.90;;;;;;5117920;28;20047;-67
2023/05/30 03:55:42;;;;;;;22.00;12.38;;;14.50;99.90;;;;;;5117960;28;20046;-67
2023/05/30 03:58:08;;;;;;;18.95;12.90;;;14.40;99.90;;;;;;5117954;28;20461;-67
2023/05/30 04:00:34;;;;;;;16.83;12.95;;;14.40;99.90;;;;;;5117925;28;20059;-67
2023/05/30 04:03:00;;;;;;;32.20;14.10;;;14.50;99.90;;;;;;5099693;28;20035;-67
2023/05/30 04:05:26;;;;;;;22.10;13.35;;;14.50;99.90;;;;;;5099486;28;20034;-67
2023/05/30 04:07:53;;;;;;;21.48;13.82;;;14.50;99.90;;;;;;5099368;28;20027;-67
2023/05/30 04:10:19;;;;;;;22.40;13.88;;;14.70;99.90;;;;;;5117419;28;20032;-67
2023/05/30 04:12:45;;;;;;;27.00;13.55;;;14.70;99.90;;;;;;5099301;28;20032;-67
2023/05/30 04:15:11;;;;;;;16.23;12.55;;;14.70;99.90;;;;;;5099375;28;20034;-67
2023/05/30 04:17:37;;;;;;;26.48;13.55;;;14.60;99.90;;;;;;5099230;28;20438;-67
2023/05/30 04:20:04;;;;;;;24.50;13.35;;;14.50;99.90;;;;;;5099332;28;20031;-67
2023/05/30 04:22:33;;;;;;;18.88;13.30;;;14.60;99.90;;;;;;5099004;28;20036;-67
2023/05/30 04:24:59;;;;;;;21.92;14.73;;;14.60;99.90;;;;;;5097971;28;20034;-67
2023/05/30 04:27:25;;;;;;;22.23;14.88;;;14.70;99.90;;;;;;5099229;28;20032;-67
2023/05/30 04:29:53;;;;;;;26.90;15.27;;;14.70;99.90;;;;;;5099017;28;20036;-68
2023/05/30 04:32:20;;;;;;;36.47;18.42;;;14.70;99.90;;;;;;5099034;28;20072;-67
2023/05/30 04:34:47;;;;;;;35.35;19.55;;;14.90;99.90;;;;;;5117107;28;20106;-67
2023/05/30 04:37:17;;;;;;;40.38;19.10;;;14.90;99.90;;;;;;5098637;28;20544;-67
2023/05/30 04:39:44;;;;;;;30.42;16.73;;;15.10;99.90;;;;;;5098791;28;20031;-67
2023/05/30 04:42:10;;;;;;;29.73;16.65;;;15.10;99.90;;;;;;5098927;28;20032;-67
2023/05/30 04:44:39;;;;;;;21.90;14.05;;;15.20;99.90;;;;;;5098684;28;20027;-67
2023/05/30 04:47:10;;;;;;;24.00;15.45;;;15.20;99.90;;;;;;5098529;28;20034;-67
2023/05/30 04:49:39;;;;;;;;;;;15.20;99.90;;;;;;5117292;28;20031;-67
2023/05/30 04:52:07;;;;;;;30.45;16.67;;;15.30;99.90;;;;;;5098640;28;19919;-67
2023/05/30 04:54:33;;;;;;;33.95;17.13;;;15.30;99.90;;;;;;5116829;28;20024;-67
2023/05/30 04:57:02;;;;;;;31.52;17.65;;;15.30;99.90;;;;;;5098386;28;20118;-67
2023/05/30 04:59:28;;;;;;;40.90;17.80;;;15.40;99.90;;;;;;5098724;28;20042;-67
2023/05/30 05:01:54;;;;;;;30.08;17.05;;;15.50;99.90;;;;;;5116594;28;20106;-67
2023/05/30 05:04:20;;;;;;;31.23;18.33;;;15.60;99.90;;;;;;5098179;28;20027;-67
2023/05/30 05:06:46;;;;;;;39.78;22.08;;;15.70;99.90;;;;;;5116556;28;20028;-67
2023/05/30 05:09:13;;;;;;;42.50;21.42;;;15.80;99.90;;;;;;5116379;28;20031;-67
2023/05/30 05:11:39;;;;;;;38.53;20.05;;;16.00;99.90;;;;;;5116504;28;20020;-67
2023/05/30 05:14:05;;;;;;;31.88;19.83;;;16.00;99.90;;;;;;5116311;28;20020;-67
2023/05/30 05:16:31;;;;;;;38.72;21.98;;;16.20;99.90;;;;;;5116319;28;20042;-67
2023/05/30 05:18:57;;;;;;;42.83;23.85;;;16.30;99.90;;;;;;5103240;28;20047;-67
2023/05/30 05:21:23;;;;;;;55.03;25.95;;;16.40;99.90;;;;;;5106572;28;20027;-67
2023/05/30 05:23:48;;;;;;;57.55;26.48;;;16.50;99.90;;;;;;5114425;28;20099;-67
2023/05/30 05:26:15;;;;;;;82.50;28.65;;;16.70;99.90;;;;;;5112027;28;20046;-67
2023/05/30 05:28:41;;;;;;;104.85;32.83;;;16.60;99.90;;;;;;5105500;28;20024;-67
2023/05/30 05:31:06;;;;;;;127.10;34.00;;;16.60;99.90;;;;;;5096374;28;20030;-67
2023/05/30 05:33:32;;;;;;;171.75;42.92;;;16.80;99.90;;;;;;5096139;28;20506;-67
2023/05/30 05:36:02;;;;;;;182.50;46.42;;;17.10;99.90;;;;;;5094879;28;20471;-67
2023/05/30 05:38:28;;;;;;;174.20;44.25;;;17.20;99.90;;;;;;5114665;28;20038;-67
2023/05/30 05:40:54;;;;;;;201.25;51.53;;;17.30;99.90;;;;;;5115439;28;20377;-67
2023/05/30 05:43:20;;;;;;;171.23;47.13;;;17.50;99.90;;;;;;5114999;28;20115;-67
2023/05/30 05:45:51;;;;;;;168.07;45.70;;;17.60;99.90;;;;;;5108362;28;20024;-67
2023/05/30 05:48:17;;;;;;;;;;;17.60;99.90;;;;;;5115466;28;20027;-67
2023/05/30 05:50:43;;;;;;;165.30;48.97;;;17.50;99.90;;;;;;5115426;28;19903;-67
2023/05/30 05:53:09;;;;;;;167.88;48.45;;;17.40;99.90;;;;;;5115720;28;20224;-67
2023/05/30 05:55:35;;;;;;;186.70;51.22;;;17.40;99.90;;;;;;5113766;28;20032;-67
2023/05/30 05:58:01;;;;;;;187.20;53.30;;;17.60;99.90;;;;;;5115067;28;20369;-67
2023/05/30 06:00:27;;;;;;;184.27;55.42;;;17.70;99.90;;;;;;5111966;28;20464;-67
2023/05/30 06:02:53;;;;;;;190.27;57.30;;;17.80;99.90;;;;;;5114391;28;20032;-67
2023/05/30 06:05:19;;;;;;;191.70;60.22;;;18.00;99.90;;;;;;5114231;28;20018;-67
2023/05/30 06:07:45;;;;;;;220.60;60.42;;;18.10;99.90;;;;;;5114555;28;20476;-67
2023/05/30 06:10:11;;;;;;;219.48;60.75;;;18.10;99.90;;;;;;5114126;28;20130;-67
2023/05/30 06:12:37;;;;;;;233.65;67.72;;;18.20;99.90;;;;;;5108538;28;20529;-67
2023/05/30 06:15:04;;;;;;;200.13;61.17;;;18.20;99.90;;;;;;5099926;28;20034;-67
2023/05/30 06:17:30;;;;;;;196.73;60.10;;;18.30;99.90;;;;;;5100367;28;20020;-67
2023/05/30 06:19:56;;;;;;;180.15;62.25;;;18.10;99.90;;;;;;5103798;28;20115;-67
2023/05/30 06:22:22;;;;;;;197.07;63.72;;;18.20;99.90;;;;;;5108477;28;20028;-67
2023/05/30 06:24:48;;;;;;;184.75;63.03;;;18.10;99.90;;;;;;5105952;28;20031;-67
2023/05/30 06:27:15;;;;;;;181.30;65.05;;;18.20;99.90;;;;;;5113969;28;20019;-67
2023/05/30 06:29:44;;;;;;;186.30;63.78;;;18.30;99.90;;;;;;5099737;28;20017;-67
2023/05/30 06:32:10;;;;;;;183.60;64.70;;;18.30;99.90;;;;;;5110416;28;20026;-67
2023/05/30 06:34:36;;;;;;;189.50;66.57;;;18.40;99.90;;;;;;5111893;28;20044;-67
2023/05/30 06:37:03;;;;;;;191.52;69.57;;;18.40;99.90;;;;;;5113225;28;20043;-67
2023/05/30 06:39:28;;;;;;;183.32;69.15;;;18.60;99.90;;;;;;5101003;28;20034;-67
2023/05/30 06:41:55;;;;;;;184.10;75.78;;;18.70;99.90;;;;;;5095346;28;20456;-67
2023/05/30 06:44:37;;;;;;;186.77;74.53;;;18.90;99.90;;;;;;5076493;28;20027;-67
2023/05/30 06:47:03;;;;;;;190.07;76.75;;;18.90;99.90;;;;;;5094320;28;20036;-67
2023/05/30 06:49:30;;;;;;;184.13;74.78;;;18.80;99.90;;;;;;5093694;28;20028;-67
2023/05/30 06:51:56;;;;;;;187.02;74.35;;;19.00;99.90;;;;;;5093838;28;20135;-67
2023/05/30 06:54:22;;;;;;;149.60;67.22;;;19.10;99.90;;;;;;5075890;28;20040;-67
2023/05/30 06:56:48;;;;;;;150.77;66.78;;;19.20;99.90;;;;;;5094358;28;20039;-67
2023/05/30 06:59:14;;;;;;;149.70;66.47;;;19.30;99.90;;;;;;5094397;28;20020;-67
2023/05/30 07:01:40;;;;;;;145.70;64.75;;;19.40;99.90;;;;;;5103510;28;20016;-67
2023/05/30 07:04:06;;;;;;;161.27;70.38;;;19.60;99.90;;;;;;5113744;28;20831;-67
2023/05/30 07:06:32;;;;;;;162.20;71.88;;;19.70;99.90;;;;;;5113492;28;20034;-67
2023/05/30 07:08:58;;;;;;;149.95;67.45;;;19.80;99.90;;;;;;5113926;28;20057;-67
2023/05/30 07:11:25;;;;;;;132.98;60.42;;;19.80;99.90;;;;;;5113913;28;20020;-67
2023/05/30 07:13:51;;;;;;;131.30;61.08;;;19.90;99.90;;;;;;5114511;28;20395;-67
2023/05/30 07:16:18;;;;;;;132.00;58.70;;;20.00;99.90;;;;;;5114340;28;20035;-67
2023/05/30 07:18:44;;;;;;;122.40;54.65;;;20.10;99.90;;;;;;5110895;28;20031;-67
2023/05/30 07:21:10;;;;;;;139.13;60.50;;;20.20;99.90;;;;;;5095075;28;20105;-67
2023/05/30 07:23:36;;;;;;;155.75;64.10;;;20.20;99.90;;;;;;5111422;28;20039;-67
2023/05/30 07:26:02;;;;;;;149.57;61.45;;;19.90;99.90;;;;;;5111284;28;20469;-67
2023/05/30 07:28:28;;;;;;;151.60;62.92;;;19.90;99.90;;;;;;5113421;28;20038;-67
2023/05/30 07:30:54;;;;;;;168.88;68.95;;;19.80;99.90;;;;;;5109859;28;20027;-67
2023/05/30 07:33:20;;;;;;;176.70;75.18;;;19.60;99.90;;;;;;5111332;28;20446;-67
2023/05/30 07:35:46;;;;;;;172.65;70.90;;;19.60;99.90;;;;;;5111111;28;20020;-67
2023/05/30 07:38:12;;;;;;;166.48;66.40;;;19.70;99.90;;;;;;5109318;28;20051;-67
2023/05/30 07:40:38;;;;;;;174.48;72.38;;;20.30;99.90;;;;;;5109514;28;20151;-67
2023/05/30 07:43:04;;;;;;;182.98;72.72;;;20.60;99.90;;;;;;5110290;28;20027;-67
2023/05/30 07:45:30;;;;;;;183.30;70.35;;;20.90;99.90;;;;;;5109397;28;20032;-67
2023/05/30 07:47:56;;;;;;;166.55;68.35;;;21.10;99.90;;;;;;5101901;28;20023;-67
2023/05/30 07:50:22;;;;;;;162.60;63.15;;;21.30;99.90;;;;;;5112455;28;20027;-67
2023/05/30 07:52:48;;;;;;;146.73;62.53;;;21.20;99.90;;;;;;5113160;28;20024;-68
2023/05/30 07:55:14;;;;;;;170.15;65.25;;;21.30;99.90;;;;;;5113944;28;20028;-67
2023/05/30 07:57:40;;;;;;;154.27;64.30;;;21.10;99.90;;;;;;5093685;28;20054;-68
2023/05/30 08:00:08;;;;;;;157.05;63.00;;;20.50;99.90;;;;;;5111073;28;20023;-67
2023/05/30 08:02:43;;;;;;;165.40;65.13;;;20.00;99.90;;;;;;5116602;28;20055;-67
2023/05/30 08:05:09;;;;;;;152.45;62.65;;;20.20;99.90;;;;;;5117819;28;20059;-67
2023/05/30 08:07:35;;;;;;;157.40;61.63;;;20.80;99.90;;;;;;5117417;28;20047;-67
2023/05/30 08:10:01;;;;;;;161.05;67.00;;;21.10;99.90;;;;;;5114452;28;20059;-68
2023/05/30 08:12:29;;;;;;;154.70;62.13;;;20.80;99.90;;;;;;5111139;28;20032;-67
2023/05/30 08:14:57;;;;;;;147.82;61.35;;;20.90;99.90;;;;;;5114802;28;20464;-67
2023/05/30 08:17:27;;;;;;;153.20;58.95;;;21.00;99.90;;;;;;5111200;28;20118;-67
2023/05/30 08:19:55;;;;;;;156.50;61.45;;;21.50;99.90;;;;;;5116613;28;20392;-67
2023/05/30 08:22:24;;;;;;;144.98;59.45;;;21.80;99.90;;;;;;5115697;28;20027;-67
2023/05/30 08:24:54;;;;;;;150.43;59.45;;;22.00;99.90;;;;;;5114498;28;20093;-67
2023/05/30 08:27:21;;;;;;;139.48;52.65;;;22.00;99.90;;;;;;5117189;28;20034;-67
2023/05/30 08:30:07;;;;;;;140.43;55.25;;;22.30;99.90;;;;;;5117188;28;20023;-68
2023/05/30 08:32:33;;;;;;;125.90;52.63;;;22.40;99.90;;;;;;5111734;28;20019;-67
2023/05/30 08:34:59;;;;;;;121.85;50.33;;;22.60;99.90;;;;;;5112833;28;20032;-67
2023/05/30 08:37:25;;;;;;;123.90;50.15;;;22.70;99.90;;;;;;5115111;28;20050;-67
2023/05/30 08:39:51;;;;;;;117.65;49.80;;;22.70;99.90;;;;;;5116011;28;20067;-67
2023/05/30 08:42:18;;;;;;;116.20;48.17;;;22.70;99.90;;;;;;5115157;28;20059;-67
2023/05/30 08:44:44;;;;;;;126.03;49.38;;;22.90;99.90;;;;;;5117284;28;20027;-67
2023/05/30 08:47:16;;;;;;;108.63;45.72;;;22.90;99.70;;;;;;5117442;28;20038;-67
2023/05/30 08:49:45;;;;;;;98.32;43.88;;;22.50;97.90;;;;;;5117832;28;20028;-67
2023/05/30 08:52:13;;;;;;;112.72;45.78;;;22.70;99.90;;;;;;5099038;28;20381;-67
2023/05/30 08:54:52;;;;;;;109.03;48.20;;;22.50;98.60;;;;;;5117556;28;20032;-67
2023/05/30 08:57:24;;;;;;;113.35;46.33;;;22.40;99.30;;;;;;5117456;28;20034;-67
2023/05/30 08:59:51;;;;;;;132.55;50.03;;;22.50;99.90;;;;;;5117071;28;20032;-67
2023/05/30 09:02:20;;;;;;;137.23;50.60;;;22.50;99.90;;;;;;5114624;28;20084;-67
2023/05/30 09:04:49;;;;;;;146.55;54.00;;;22.50;99.90;;;;;;5101492;28;20107;-67
2023/05/30 09:07:15;;;;;;;126.03;49.63;;;22.80;99.90;;;;;;5107857;28;20099;-67
2023/05/30 09:09:42;;;;;;;125.07;49.08;;;22.70;98.50;;;;;;5113859;28;20030;-67
2023/05/30 09:12:09;;;;;;;119.65;45.25;;;22.80;99.90;;;;;;5116610;28;20613;-68
2023/05/30 09:14:41;;;;;;;113.15;45.75;;;22.60;99.90;;;;;;5116933;28;20047;-67
2023/05/30 09:17:13;;;;;;;100.90;42.72;;;22.90;99.90;;;;;;5117150;28;20027;-67
2023/05/30 09:19:40;;;;;;;97.22;39.83;;;23.10;99.70;;;;;;5116552;28;20621;-67
2023/05/30 09:22:06;;;;;;;114.07;41.25;;;23.00;98.10;;;;;;5114705;28;20375;-67
2023/05/30 09:24:58;;;;;;;88.35;37.83;;;23.00;96.80;;;;;;5109588;28;20038;-67
2023/05/30 09:27:25;;;;;;;97.18;39.08;;;23.00;98.30;;;;;;5116205;28;20477;-67
2023/05/30 09:29:52;;;;;;;94.90;39.67;;;22.70;97.90;;;;;;5115832;28;20032;-67
2023/05/30 09:32:18;;;;;;;101.35;41.33;;;23.10;96.80;;;;;;5115819;28;20106;-67
2023/05/30 09:34:55;;;;;;;99.35;41.08;;;23.60;98.30;;;;;;5115368;28;20050;-67
2023/05/30 09:37:22;;;;;;;95.00;40.10;;;23.40;96.20;;;;;;5115705;28;20055;-67
2023/05/30 09:40:09;;;;;;;102.40;40.75;;;23.70;97.40;;;;;;5097563;28;20039;-67
2023/05/30 09:42:55;;;;;;;103.63;43.25;;;24.50;97.50;;;;;;5115591;28;20038;-68
2023/05/30 09:45:25;;;;;;;87.35;36.85;;;25.10;94.00;;;;;;5115430;28;20024;-67
2023/05/30 09:47:52;;;;;;;84.60;34.57;;;25.10;91.60;;;;;;5115652;28;20080;-67
2023/05/30 09:50:20;;;;;;;90.00;36.22;;;25.30;92.70;;;;;;5115417;28;20096;-68
2023/05/30 09:52:51;;;;;;;76.18;32.30;;;26.30;92.40;;;;;;5115415;28;20016;-67
2023/05/30 09:55:19;;;;;;;65.20;28.27;;;26.70;85.40;;;;;;5115586;28;20027;-68
2023/05/30 09:57:49;;;;;;;81.25;32.47;;;26.90;85.40;;;;;;5115438;28;20024;-67
2023/05/30 10:00:22;;;;;;;62.90;28.52;;;26.60;84.10;;;;;;5115222;28;20389;-67
2023/05/30 10:02:53;;;;;;;69.88;28.83;;;27.40;77.70;;;;;;5114677;28;20036;-67
2023/05/30 10:05:30;;;;;;;79.72;31.08;;;28.10;82.30;;;;;;5111833;28;20030;-67
2023/05/30 10:07:57;;;;;;;52.25;25.50;;;28.30;77.70;;;;;;5108906;28;20026;-67
2023/05/30 10:10:24;;;;;;;42.38;19.83;;;27.70;73.30;;;;;;5110129;28;20027;-67
2023/05/30 10:12:55;;;;;;;54.63;24.38;;;28.00;72.90;;;;;;5102642;28;20027;-67
2023/05/30 10:15:23;;;;;;;68.53;31.08;;;28.20;74.50;;;;;;5099373;28;20497;-67
2023/05/30 10:18:08;;;;;;;68.10;28.48;;;28.50;77.90;;;;;;5110584;28;20202;-67
2023/05/30 10:20:43;;;;;;;64.32;26.77;;;28.70;76.00;;;;;;5103752;28;20036;-67
2023/05/30 10:23:12;;;;;;;61.05;26.83;;;28.90;74.70;;;;;;5100292;28;20041;-67
2023/05/30 10:25:43;;;;;;;42.40;22.17;;;28.40;74.80;;;;;;5113797;28;20395;-68
2023/05/30 10:28:18;;;;;;;43.38;20.35;;;28.90;74.70;;;;;;5109249;28;20546;-68
2023/05/30 10:30:58;;;;;;;35.30;16.95;;;28.80;68.70;;;;;;5114565;28;20028;-68
2023/05/30 10:33:28;;;;;;;35.00;17.40;;;28.60;69.30;;;;;;5110068;28;20040;-67
2023/05/30 10:35:57;;;;;;;27.77;14.82;;;28.00;69.00;;;;;;5108943;28;20059;-67
2023/05/30 10:38:27;;;;;;;29.10;15.13;;;28.10;71.50;;;;;;5108810;28;20069;-68
2023/05/30 10:41:03;;;;;;;39.03;18.08;;;27.80;71.40;;;;;;5114381;28;20044;-67
2023/05/30 10:43:47;;;;;;;30.88;14.02;;;27.40;69.00;;;;;;5112680;28;20420;-68
2023/05/30 10:46:54;;;;;;;27.98;13.90;;;27.40;71.30;;;;;;5101309;28;20333;-67
2023/05/30 10:49:28;;;;;;;20.13;12.30;;;27.00;71.20;;;;;;5104843;28;20020;-67
2023/05/30 10:52:04;;;;;;;21.80;11.48;;;26.40;74.70;;;;;;5110861;28;20045;-67
2023/05/30 10:54:35;;;;;;;18.25;9.52;;;26.50;73.00;;;;;;5113121;28;20079;-67
2023/05/30 10:57:23;;;;;;;19.27;9.20;;;26.70;72.50;;;;;;5107326;28;20028;-67
2023/05/30 10:59:50;;;;;;;11.65;7.43;;;26.70;72.80;;;;;;5095989;28;20493;-67
2023/05/30 11:02:20;;;;;;;24.55;7.90;;;26.50;72.80;;;;;;5114395;28;20024;-67
2023/05/30 11:05:10;;;;;;;8.57;4.47;;;26.90;74.20;;;;;;5114354;28;20164;-67
2023/05/30 11:07:43;;;;;;;16.08;6.05;;;26.70;70.20;;;;;;5095487;28;20086;-67
2023/05/30 11:10:11;;;;;;;5.75;4.90;;;26.40;74.10;;;;;;5114157;28;20016;-67
2023/05/30 11:12:44;;;;;;;8.15;4.95;;;26.80;75.40;;;;;;5114425;28;20039;-67
2023/05/30 11:15:29;;;;;;;9.85;5.97;;;26.40;74.70;;;;;;5114584;28;20023;-68
2023/05/30 11:17:56;;;;;;;13.77;5.43;;;26.80;74.80;;;;;;5113994;28;20028;-67
2023/05/30 11:20:22;;;;;;;21.80;7.05;;;27.50;74.80;;;;;;5114333;28;20027;-68
2023/05/30 11:23:09;;;;;;;7.18;5.40;;;27.60;75.20;;;;;;5113923;28;20033;-68
2023/05/30 11:25:35;;;;;;;7.28;5.15;;;27.70;71.30;;;;;;5093588;28;20028;-68
2023/05/30 11:28:13;;;;;;;14.43;4.72;;;27.60;70.70;;;;;;5094073;28;20030;-67
2023/05/30 11:30:47;;;;;;;8.25;4.70;;;27.60;69.10;;;;;;5101643;28;20023;-68
2023/05/30 11:33:16;;;;;;;10.48;5.07;;;27.00;72.90;;;;;;5099978;28;20365;-67
2023/05/30 11:35:49;;;;;;;8.70;4.82;;;26.50;71.80;;;;;;5105561;28;20027;-67
2023/05/30 11:38:22;;;;;;;11.90;5.05;;;26.30;73.00;;;;;;5117721;28;20030;-67
2023/05/30 11:40:55;;;;;;;10.73;5.13;;;26.50;71.70;;;;;;5110712;28;20031;-67
2023/05/30 11:43:25;;;;;;;13.63;5.85;;;26.20;74.00;;;;;;5111054;28;20543;-67
2023/05/30 11:46:04;;;;;;;9.05;5.78;;;26.30;75.20;;;;;;5101300;28;20054;-67
2023/05/30 11:48:32;;;;;;;14.43;6.25;;;26.00;75.50;;;;;;5078125;28;20055;-67
2023/05/30 11:50:59;;;;;;;9.77;6.00;;;25.50;75.30;;;;;;5097515;28;20099;-67
2023/05/30 11:53:27;;;;;;;8.85;6.13;;;25.70;77.20;;;;;;5097561;28;20036;-67
2023/05/30 11:55:55;;;;;;;8.27;6.18;;;25.80;78.90;;;;;;5109695;28;20465;-67
2023/05/30 11:58:21;;;;;;;23.25;8.00;;;25.50;78.20;;;;;;5117577;28;20529;-67
2023/05/30 12:00:47;;;;;;;10.38;7.53;;;25.50;78.80;;;;;;5117165;28;20024;-67
2023/05/30 12:03:16;;;;;;;10.35;7.43;;;25.60;80.70;;;;;;5117588;28;20530;-67
2023/05/30 12:05:44;;;;;;;10.60;6.72;;;25.60;79.20;;;;;;5117653;28;20125;-67
2023/05/30 12:08:18;;;;;;;10.18;7.85;;;25.50;79.00;;;;;;5117384;28;20057;-67
2023/05/30 12:10:51;;;;;;;18.35;9.55;;;24.90;77.90;;;;;;5096831;28;20453;-67
2023/05/30 12:13:18;;;;;;;17.08;9.18;;;25.20;80.20;;;;;;5110013;28;20030;-67
2023/05/30 12:15:44;;;;;;;14.25;9.32;;;25.30;79.80;;;;;;5110442;28;20491;-67
2023/05/30 12:18:15;;;;;;;14.98;8.35;;;25.30;80.50;;;;;;5107531;28;20084;-67
2023/05/30 12:20:43;;;;;;;9.30;7.18;;;25.20;79.60;;;;;;5096941;28;20028;-67
2023/05/30 12:23:12;;;;;;;11.30;7.80;;;25.20;79.70;;;;;;5107158;28;20077;-67
2023/05/30 12:25:38;;;;;;;17.05;8.75;;;24.70;79.50;;;;;;5101204;28;20122;-67
2023/05/30 12:28:04;;;;;;;11.15;7.47;;;23.90;81.80;;;;;;5116853;28;20062;-67
2023/05/30 12:30:34;;;;;;;9.10;7.75;;;23.80;82.30;;;;;;5116479;28;20431;-67
2023/05/30 12:33:12;;;;;;;8.65;7.72;;;24.30;84.10;;;;;;5116257;28;20138;-67
2023/05/30 12:35:40;;;;;;;8.48;7.32;;;24.50;87.00;;;;;;5110082;28;20434;-67
2023/05/30 12:38:07;;;;;;;8.25;7.45;;;24.70;84.90;;;;;;5112561;28;20051;-67